Bethune, Colorado
Current Conditions -  °F | °C
As of 9:53 PM on Saturday 22 Nov 2014 (Local Time) from KITR Reporting Station
Clear Clear  
Wind Chill: 36°   Ceiling: Unl
Heat Index: 41°   Visibility: 10mi
Dew Point: 18°   Wind: 7mph
Humidity: 40%   Direction: 330°NNW
Pressure: 29.51"   Gusts: NA
Location:  39.3°N, 102.42°W
Report Text: KITR 230453Z AUTO 33006KT 10SM CLR 05/M08 A2951 RMK AO2 SLP970 T00501078
Loading
Personal Weather Stations






























Interactive Weather Map New forecast layout! Learn more

10-Day Weather Forecast

Advertisements
Track Severe Weather on mobile